createdAt,value
2022-07-25T00:01:14.827Z,1006.3
2022-07-25T00:06:41.164Z,1006.2
2022-07-25T00:11:27.919Z,1006.2
2022-07-25T00:16:54.365Z,1006.1
2022-07-25T00:22:56.963Z,1006.1
2022-07-25T00:26:47.209Z,1006.0
2022-07-25T00:31:53.593Z,1005.9
2022-07-25T00:36:59.997Z,1006.0
2022-07-25T00:42:26.436Z,1006.0
2022-07-25T00:47:12.775Z,1005.9
2022-07-25T00:55:07.513Z,1005.8
2022-07-25T00:57:25.577Z,1005.9
2022-07-25T01:02:32.032Z,1005.7
2022-07-25T01:07:38.386Z,1005.8
2022-07-25T01:12:44.762Z,1005.7
2022-07-25T01:18:11.234Z,1005.6
2022-07-25T01:26:05.967Z,1005.6
2022-07-25T01:28:03.986Z,1005.5
2022-07-25T01:33:34.419Z,1005.5
2022-07-25T01:38:16.768Z,1005.5
2022-07-25T01:44:35.321Z,1005.5
2022-07-25T01:49:13.801Z,1005.4
2022-07-25T01:53:39.534Z,1005.4
2022-07-25T01:58:45.960Z,1005.4
2022-07-25T02:04:36.544Z,1005.3
2022-07-25T02:08:59.887Z,1005.2
2022-07-25T02:14:30.297Z,1005.2
2022-07-25T02:19:12.639Z,1005.1
2022-07-25T02:24:19.010Z,1005.2
2022-07-25T02:29:45.446Z,1005.1
2022-07-25T02:34:31.886Z,1005.0
2022-07-25T02:39:38.299Z,1005.0
2022-07-25T02:44:44.750Z,1004.9
2022-07-25T02:50:15.493Z,1004.8
2022-07-25T02:54:57.868Z,1004.8
2022-07-25T03:00:04.221Z,1004.8
2022-07-25T03:05:30.639Z,1004.6
2022-07-25T03:10:41.025Z,1004.7
2022-07-25T03:15:47.579Z,1004.7
2022-07-25T03:20:49.964Z,1004.5
2022-07-25T03:26:48.449Z,1004.6
2022-07-25T03:30:42.720Z,1004.5
2022-07-25T03:35:49.090Z,1004.5
2022-07-25T03:40:55.481Z,1004.4
2022-07-25T03:46:26.034Z,1004.4
2022-07-25T03:51:08.266Z,1004.3
2022-07-25T03:56:14.650Z,1004.3
2022-07-25T04:02:33.293Z,1004.2
2022-07-25T04:06:27.437Z,1004.2
2022-07-25T04:11:33.813Z,1004.1
2022-07-25T04:16:40.232Z,1004.1
2022-07-25T04:21:46.585Z,1003.9
2022-07-25T04:26:53.023Z,1004.0
2022-07-25T04:31:59.437Z,1004.1
2022-07-25T04:37:05.766Z,1003.9
2022-07-25T04:42:12.155Z,1003.9
2022-07-25T04:47:18.536Z,1003.8
2022-07-25T04:52:24.919Z,1003.8
2022-07-25T04:57:31.312Z,1003.8
2022-07-25T05:03:21.758Z,1003.7
2022-07-25T05:07:44.050Z,1003.7
2022-07-25T05:12:50.416Z,1003.7
2022-07-25T05:17:46.799Z,1003.6
2022-07-25T05:23:03.258Z,1003.5
2022-07-25T05:27:59.736Z,1003.5
2022-07-25T05:33:16.142Z,1003.4
2022-07-25T05:38:36.560Z,1003.5
2022-07-25T05:43:48.968Z,1003.5
2022-07-25T05:48:49.413Z,1003.4
2022-07-25T05:53:31.689Z,1003.4
2022-07-25T05:58:48.066Z,1003.4
2022-07-25T06:04:14.484Z,1003.4
2022-07-25T06:09:24.868Z,1003.3
2022-07-25T06:14:07.514Z,1003.3
2022-07-25T06:19:13.634Z,1003.2
2022-07-25T06:24:20.008Z,1003.2
2022-07-25T06:29:26.406Z,1003.1
2022-07-25T06:34:32.839Z,1003.1
2022-07-25T06:39:29.153Z,1003.1
2022-07-25T06:44:45.731Z,1003.0
2022-07-25T06:49:42.073Z,1003.1
2022-07-25T06:54:57.469Z,1003.1
2022-07-25T06:59:54.828Z,1003.0
2022-07-25T07:12:23.042Z,1003.1
2022-07-25T07:25:36.921Z,1003.0
2022-07-25T07:31:19.334Z,1002.9
2022-07-25T07:35:57.282Z,1002.8
2022-07-25T07:41:24.612Z,1002.9
2022-07-25T07:46:11.025Z,1002.7
2022-07-25T07:51:21.350Z,1002.8
2022-07-25T07:57:24.420Z,1002.7
2022-07-25T08:08:22.285Z,1002.8
2022-07-25T08:12:20.537Z,1002.7
2022-07-25T08:17:31.069Z,1002.6
2022-07-25T08:23:16.719Z,1002.7
2022-07-25T08:29:04.911Z,1002.8
2022-07-25T08:33:30.573Z,1002.6
2022-07-25T08:39:01.031Z,1002.7
2022-07-25T08:43:43.355Z,1002.6
2022-07-25T08:49:17.913Z,1002.7
2022-07-25T09:00:06.259Z,1002.6
2022-07-25T09:04:12.594Z,1002.7
2022-07-25T09:09:18.999Z,1002.7
2022-07-25T09:14:29.398Z,1002.5
2022-07-25T09:19:31.798Z,1002.5
2022-07-25T09:25:22.265Z,1002.4
2022-07-25T09:29:44.554Z,1002.3
2022-07-25T09:34:51.003Z,1002.4
2022-07-25T09:39:57.922Z,1002.5
2022-07-25T09:45:31.553Z,1002.4
2022-07-25T09:50:10.653Z,1002.3
2022-07-25T09:55:37.082Z,1002.4
2022-07-25T10:00:18.975Z,1002.4
2022-07-25T10:05:29.819Z,1002.2
2022-07-25T10:10:40.267Z,1002.3
2022-07-25T10:15:42.627Z,1002.4
2022-07-25T10:20:49.039Z,1002.5
2022-07-25T10:25:55.479Z,1002.4
2022-07-25T10:31:26.149Z,1002.5
2022-07-25T10:36:10.001Z,1002.5
2022-07-25T10:41:16.379Z,1002.5
2022-07-25T10:46:22.849Z,1002.4
2022-07-25T10:51:35.105Z,1002.5
2022-07-25T10:56:35.598Z,1002.5
2022-07-25T11:01:42.102Z,1002.4
2022-07-25T11:06:51.504Z,1002.5
2022-07-25T11:12:01.899Z,1002.6
2022-07-25T11:18:16.408Z,1002.7
2022-07-25T11:22:00.645Z,1002.5
2022-07-25T11:27:17.053Z,1002.8
2022-07-25T11:32:27.436Z,1002.7
2022-07-25T11:37:29.817Z,1002.8
2022-07-25T11:42:50.234Z,1002.9
2022-07-25T11:47:42.588Z,1002.7
2022-07-25T11:52:38.936Z,1002.7
2022-07-25T11:58:39.425Z,1002.9
2022-07-25T12:03:01.902Z,1002.8
2022-07-25T12:08:08.088Z,1003.0
2022-07-25T12:13:38.509Z,1003.0
2022-07-25T12:18:20.843Z,1003.0
2022-07-25T12:23:27.216Z,1002.9
2022-07-25T12:33:29.961Z,1002.9
2022-07-25T12:38:49.392Z,1003.2
2022-07-25T12:43:52.792Z,1003.3
2022-07-25T12:48:49.217Z,1003.3
2022-07-25T12:54:08.928Z,1003.3
2022-07-25T12:59:01.936Z,1003.3
2022-07-25T13:04:08.317Z,1003.4
2022-07-25T13:09:24.717Z,1003.6
2022-07-25T13:14:31.112Z,1003.5
2022-07-25T13:19:57.506Z,1003.5
2022-07-25T13:24:33.925Z,1003.4
2022-07-25T13:29:50.329Z,1003.4
2022-07-25T13:35:20.439Z,1003.4
2022-07-25T13:40:03.209Z,1003.5
2022-07-25T13:44:59.579Z,1003.6
2022-07-25T13:50:20.169Z,1003.7
2022-07-25T13:55:13.097Z,1003.6
2022-07-25T14:00:29.494Z,1003.7
2022-07-25T14:05:35.879Z,1003.8
2022-07-25T14:10:42.257Z,1003.7
2022-07-25T14:15:52.648Z,1003.8
2022-07-25T14:20:45.029Z,1003.8
2022-07-25T14:26:05.434Z,1003.9
2022-07-25T14:31:31.982Z,1003.9
2022-07-25T14:36:04.212Z,1004.0
2022-07-25T14:46:27.681Z,1004.2
2022-07-25T14:51:58.067Z,1004.1
2022-07-25T14:56:40.411Z,1004.2
2022-07-25T15:01:36.877Z,1004.4
2022-07-25T15:06:57.162Z,1004.6
2022-07-25T15:17:06.558Z,1004.4
2022-07-25T15:23:06.024Z,1004.4
2022-07-25T15:27:20.350Z,1004.3
2022-07-25T15:40:32.203Z,1004.5
2022-07-25T15:45:39.580Z,1004.4
2022-07-25T15:50:45.974Z,1004.5
2022-07-25T15:55:55.945Z,1004.4
2022-07-25T16:01:22.470Z,1004.5
2022-07-25T16:06:08.691Z,1004.4
2022-07-25T16:11:15.087Z,1004.4
2022-07-25T16:16:45.636Z,1004.5
2022-07-25T16:21:47.941Z,1004.4
2022-07-25T16:26:34.278Z,1004.5
2022-07-25T16:31:54.767Z,1004.5
2022-07-25T16:36:46.197Z,1004.5
2022-07-25T16:41:53.558Z,1004.5
2022-07-25T16:46:59.990Z,1004.5
2022-07-25T16:52:06.331Z,1004.4
2022-07-25T16:57:16.716Z,1004.6
2022-07-25T17:02:19.479Z,1004.5
2022-07-25T17:07:25.793Z,1004.6
2022-07-25T17:12:22.255Z,1004.6
2022-07-25T17:17:38.650Z,1004.7
2022-07-25T17:23:19.132Z,1004.7
2022-07-25T17:28:26.531Z,1004.8
2022-07-25T17:33:36.935Z,1004.8
2022-07-25T17:38:39.297Z,1004.7
2022-07-25T17:43:49.701Z,1004.8
2022-07-25T17:48:56.215Z,1004.9
2022-07-25T17:54:00.044Z,1004.8
2022-07-25T17:59:06.429Z,1004.9
2022-07-25T18:04:12.885Z,1005.0
2022-07-25T18:09:43.337Z,1005.0
2022-07-25T18:14:25.696Z,1005.1
2022-07-25T18:19:36.097Z,1005.1
2022-07-25T18:24:42.446Z,1005.1
2022-07-25T18:29:44.902Z,1005.0
2022-07-25T18:34:51.409Z,1005.2
2022-07-25T18:39:57.829Z,1005.2
2022-07-25T18:46:04.454Z,1005.2
2022-07-25T18:49:59.601Z,1005.2
2022-07-25T18:55:16.969Z,1005.2
2022-07-25T19:00:27.372Z,1005.4
2022-07-25T19:05:29.777Z,1005.5
2022-07-25T19:10:26.098Z,1005.4
2022-07-25T19:15:42.559Z,1005.5
2022-07-25T19:20:48.905Z,1005.6
2022-07-25T19:25:59.311Z,1005.6
2022-07-25T19:30:51.725Z,1005.6
2022-07-25T19:35:58.043Z,1005.7
2022-07-25T19:41:37.484Z,1005.9
2022-07-25T19:46:23.961Z,1005.9
2022-07-25T19:51:20.943Z,1006.0
2022-07-25T19:56:36.365Z,1006.0
2022-07-25T20:01:43.886Z,1006.0
2022-07-25T20:06:50.181Z,1006.1
2022-07-25T20:13:01.459Z,1006.1
2022-07-25T20:17:03.056Z,1006.2
2022-07-25T20:22:37.403Z,1006.3
2022-07-25T20:27:15.741Z,1006.2
2022-07-25T20:32:22.118Z,1006.3
2022-07-25T20:37:30.072Z,1006.4
2022-07-25T20:43:00.503Z,1006.4
2022-07-25T20:47:42.841Z,1006.4
2022-07-25T20:52:39.220Z,1006.4
2022-07-25T20:57:58.632Z,1006.5
2022-07-25T21:08:57.404Z,1006.5
2022-07-25T21:13:44.758Z,1006.5
2022-07-25T21:19:43.288Z,1006.6
2022-07-25T21:23:57.547Z,1006.6
2022-07-25T21:29:04.355Z,1006.5
2022-07-25T21:34:11.980Z,1006.6
2022-07-25T21:39:22.380Z,1006.7
2022-07-25T21:44:24.805Z,1006.7
2022-07-25T21:49:40.805Z,1006.7
2022-07-25T21:55:29.731Z,1006.7
2022-07-25T21:59:44.004Z,1006.7
2022-07-25T22:04:50.619Z,1006.6
2022-07-25T22:09:57.605Z,1006.8
2022-07-25T22:20:16.248Z,1006.9
2022-07-25T22:26:15.755Z,1006.9
2022-07-25T22:31:46.307Z,1007.0
2022-07-25T22:35:36.406Z,1007.1
2022-07-25T22:40:42.796Z,1007.1
2022-07-25T22:45:53.341Z,1007.1
2022-07-25T22:50:59.723Z,1007.3
2022-07-25T22:56:06.086Z,1007.3
2022-07-25T23:01:12.480Z,1007.2
2022-07-25T23:06:14.879Z,1007.3
2022-07-25T23:11:21.235Z,1007.3
2022-07-25T23:16:51.782Z,1007.4
2022-07-25T23:24:26.352Z,1007.3
2022-07-25T23:26:40.397Z,1007.3
2022-07-25T23:31:46.844Z,1007.4
2022-07-25T23:38:17.348Z,1007.4
2022-07-25T23:47:05.131Z,1007.4
2022-07-25T23:52:11.385Z,1007.4
2022-07-25T23:57:22.809Z,1007.4
